createdAt,value
2019-02-21T00:02:26.999Z,29.27
2019-02-21T00:04:57.181Z,29.30
2019-02-21T00:07:27.401Z,31.00
2019-02-21T00:09:57.145Z,34.83
2019-02-21T00:12:27.146Z,27.10
2019-02-21T00:14:57.162Z,30.53
2019-02-21T00:17:27.294Z,25.50
2019-02-21T00:19:57.290Z,31.93
2019-02-21T00:22:27.203Z,32.30
2019-02-21T00:24:57.098Z,28.70
2019-02-21T00:27:27.127Z,31.90
2019-02-21T00:29:57.258Z,32.37
2019-02-21T00:32:27.182Z,24.17
2019-02-21T00:34:57.568Z,30.87
2019-02-21T00:37:28.005Z,27.27
2019-02-21T00:39:58.027Z,27.00
2019-02-21T00:42:27.863Z,25.90
2019-02-21T00:44:57.926Z,26.60
2019-02-21T00:47:27.942Z,26.13
2019-02-21T00:49:58.206Z,27.13
2019-02-21T00:52:28.190Z,28.63
2019-02-21T00:54:58.216Z,26.53
2019-02-21T00:57:29.110Z,29.77
2019-02-21T00:59:59.014Z,32.30
2019-02-21T01:02:29.069Z,30.63
2019-02-21T01:04:58.899Z,29.90
2019-02-21T01:07:28.830Z,29.07
2019-02-21T01:09:58.835Z,29.00
2019-02-21T01:12:28.977Z,30.70
2019-02-21T01:14:59.054Z,31.27
2019-02-21T01:17:28.902Z,32.50
2019-02-21T01:19:58.773Z,28.17
2019-02-21T01:22:28.700Z,33.13
2019-02-21T01:24:58.687Z,34.13
2019-02-21T01:27:28.788Z,31.80
2019-02-21T01:29:58.838Z,31.73
2019-02-21T01:32:28.678Z,38.53
2019-02-21T01:34:58.683Z,30.43
2019-02-21T01:37:28.546Z,30.43
2019-02-21T01:39:58.488Z,30.63
2019-02-21T01:42:28.501Z,31.10
2019-02-21T01:44:58.339Z,31.77
2019-02-21T01:47:30.807Z,26.87
2019-02-21T01:50:00.747Z,28.07
2019-02-21T01:52:30.634Z,34.20
2019-02-21T01:55:00.551Z,32.73
2019-02-21T01:57:30.506Z,27.90
2019-02-21T02:00:00.415Z,29.53
2019-02-21T02:02:30.415Z,27.30
2019-02-21T02:05:00.389Z,29.40
2019-02-21T02:07:30.479Z,28.90
2019-02-21T02:10:00.351Z,31.87
2019-02-21T02:12:30.451Z,32.80
2019-02-21T02:15:00.308Z,27.03
2019-02-21T02:17:30.059Z,34.80
2019-02-21T02:19:59.995Z,31.30
2019-02-21T02:22:29.795Z,28.60
2019-02-21T02:24:59.906Z,26.50
2019-02-21T02:27:29.873Z,31.23
2019-02-21T02:29:59.821Z,30.30
2019-02-21T02:32:29.842Z,36.17
2019-02-21T02:35:00.125Z,28.97
2019-02-21T02:37:30.270Z,28.80
2019-02-21T02:40:00.404Z,27.63
2019-02-21T02:42:30.581Z,29.80
2019-02-21T02:45:00.615Z,28.60
2019-02-21T02:47:30.654Z,32.03
2019-02-21T02:50:00.728Z,27.93
2019-02-21T02:52:30.702Z,29.23
2019-02-21T02:55:00.735Z,29.47
2019-02-21T02:57:30.614Z,31.07
2019-02-21T03:00:00.745Z,33.53
2019-02-21T03:02:30.633Z,28.93
2019-02-21T03:05:00.567Z,26.90
2019-02-21T03:07:30.408Z,34.43
2019-02-21T03:10:00.549Z,28.60
2019-02-21T03:12:30.601Z,29.67
2019-02-21T03:15:00.652Z,29.23
2019-02-21T03:17:30.516Z,28.80
2019-02-21T03:20:00.577Z,27.03
2019-02-21T03:22:30.518Z,28.50
2019-02-21T03:25:00.573Z,37.60
2019-02-21T03:27:30.434Z,31.40
2019-02-21T03:30:00.685Z,30.93
2019-02-21T03:32:30.656Z,37.70
2019-02-21T03:35:00.736Z,39.33
2019-02-21T03:37:30.628Z,31.03
2019-02-21T03:40:00.416Z,31.77
2019-02-21T03:42:30.248Z,34.87
2019-02-21T03:45:00.350Z,36.70
2019-02-21T03:47:30.221Z,30.10
2019-02-21T03:50:00.410Z,29.30
2019-02-21T03:52:30.402Z,27.87
2019-02-21T03:55:00.508Z,29.10
2019-02-21T03:57:30.386Z,28.70
2019-02-21T04:00:00.388Z,30.70
2019-02-21T04:02:30.424Z,33.60
2019-02-21T04:05:00.436Z,36.20
2019-02-21T04:07:30.213Z,30.30
2019-02-21T04:10:00.006Z,29.67
2019-02-21T04:12:29.938Z,32.23
2019-02-21T04:14:59.808Z,30.87
2019-02-21T04:17:29.582Z,27.67
2019-02-21T04:19:59.476Z,33.83
2019-02-21T04:22:29.455Z,34.07
2019-02-21T04:24:59.247Z,34.47
2019-02-21T04:27:29.212Z,37.23
2019-02-21T04:29:59.015Z,29.27
2019-02-21T04:32:29.023Z,28.30
2019-02-21T04:34:59.318Z,32.40
2019-02-21T04:37:29.146Z,29.00
2019-02-21T04:39:58.911Z,26.93
2019-02-21T04:42:29.111Z,30.30
2019-02-21T04:44:58.924Z,29.70
2019-02-21T04:47:28.770Z,43.37
2019-02-21T04:49:58.637Z,35.77
2019-02-21T04:52:28.553Z,34.13
2019-02-21T04:54:58.362Z,30.27
2019-02-21T04:57:28.212Z,43.13
2019-02-21T04:59:58.066Z,30.40
2019-02-21T05:02:29.498Z,30.00
2019-02-21T05:04:59.397Z,30.53
2019-02-21T05:07:29.416Z,35.17
2019-02-21T05:09:59.197Z,31.30
2019-02-21T05:12:29.054Z,30.80
2019-02-21T05:14:59.082Z,29.17
2019-02-21T05:17:28.978Z,31.00
2019-02-21T05:19:58.845Z,33.03
2019-02-21T05:22:28.720Z,28.40
2019-02-21T05:24:58.543Z,29.83
2019-02-21T05:27:32.629Z,32.43
2019-02-21T05:30:02.737Z,34.83
2019-02-21T05:32:42.430Z,33.37
2019-02-21T05:35:31.104Z,33.97
2019-02-21T05:38:16.759Z,35.33
2019-02-21T05:40:59.289Z,32.57
2019-02-21T05:43:56.799Z,31.63
2019-02-21T05:46:51.302Z,31.80
2019-02-21T05:49:33.545Z,32.50
2019-02-21T05:52:28.124Z,39.07
2019-02-21T05:55:08.664Z,30.63
2019-02-21T05:57:52.072Z,29.90
2019-02-21T06:00:42.781Z,36.70
2019-02-21T06:03:43.517Z,39.40
2019-02-21T06:06:47.378Z,32.77
2019-02-21T06:09:22.487Z,35.43
2019-02-21T06:12:19.934Z,30.07
2019-02-21T06:14:59.596Z,37.77
2019-02-21T06:17:42.924Z,33.10
2019-02-21T06:20:33.581Z,41.20
2019-02-21T06:23:18.348Z,39.10
2019-02-21T06:26:09.882Z,45.53
2019-02-21T06:29:02.143Z,32.33
2019-02-21T06:31:31.949Z,36.93
2019-02-21T06:34:01.786Z,33.23
2019-02-21T06:36:31.605Z,33.43
2019-02-21T06:39:01.475Z,37.27
2019-02-21T06:41:31.302Z,39.70
2019-02-21T06:44:01.290Z,39.57
2019-02-21T06:46:31.217Z,36.73
2019-02-21T06:49:01.059Z,37.73
2019-02-21T06:51:30.891Z,32.50
2019-02-21T06:54:00.786Z,32.63
2019-02-21T06:56:30.763Z,32.33
2019-02-21T06:59:00.634Z,34.03
2019-02-21T07:01:30.467Z,49.70
2019-02-21T07:04:01.937Z,36.53
2019-02-21T07:06:32.575Z,35.87
2019-02-21T07:09:02.494Z,37.40
2019-02-21T07:11:32.356Z,39.50
2019-02-21T07:14:02.255Z,34.60
2019-02-21T07:16:33.024Z,34.53
2019-02-21T07:19:02.908Z,36.00
2019-02-21T07:21:32.706Z,27.43
2019-02-21T07:24:02.518Z,41.83
2019-02-21T07:26:32.360Z,34.33
2019-02-21T07:29:02.177Z,27.77
2019-02-21T07:31:32.772Z,30.90
2019-02-21T07:34:02.712Z,39.93
2019-02-21T07:36:32.460Z,31.90
2019-02-21T07:39:16.267Z,31.30
2019-02-21T07:41:33.775Z,29.23
2019-02-21T07:44:11.629Z,30.93
2019-02-21T07:46:35.132Z,26.30
2019-02-21T07:49:04.970Z,29.47
2019-02-21T07:51:36.046Z,30.20
2019-02-21T07:54:06.030Z,31.27
2019-02-21T07:56:42.082Z,25.40
2019-02-21T07:59:07.360Z,39.47
2019-02-21T08:01:37.220Z,27.30
2019-02-21T08:04:06.999Z,29.93
2019-02-21T08:06:36.918Z,37.50
2019-02-21T08:09:08.918Z,30.20
2019-02-21T08:11:38.755Z,37.63
2019-02-21T08:14:08.566Z,29.17
2019-02-21T08:16:38.455Z,23.70
2019-02-21T08:19:08.271Z,37.07
2019-02-21T08:21:38.134Z,30.70
2019-02-21T08:24:08.101Z,25.63
2019-02-21T08:26:37.913Z,27.90
2019-02-21T08:29:07.800Z,44.90
2019-02-21T08:31:37.519Z,37.50
2019-02-21T08:34:41.401Z,29.07
2019-02-21T08:37:11.166Z,32.20
2019-02-21T08:39:41.036Z,36.23
2019-02-21T08:42:10.835Z,31.70
2019-02-21T08:44:40.670Z,28.23
2019-02-21T08:47:10.566Z,35.27
2019-02-21T08:49:40.290Z,35.80
2019-02-21T08:52:10.268Z,30.37
2019-02-21T08:54:40.063Z,41.87
2019-02-21T08:57:09.941Z,33.23
2019-02-21T08:59:42.253Z,35.33
2019-02-21T09:02:11.166Z,31.50
2019-02-21T09:04:41.064Z,39.03
2019-02-21T09:07:10.905Z,27.80
2019-02-21T09:09:41.043Z,29.30
2019-02-21T09:12:11.023Z,32.73
2019-02-21T09:14:40.901Z,29.20
2019-02-21T09:17:10.822Z,33.40
2019-02-21T09:19:40.823Z,31.00
2019-02-21T09:22:10.686Z,30.97
2019-02-21T09:24:42.541Z,27.47
2019-02-21T09:27:12.116Z,37.27
2019-02-21T09:29:41.907Z,28.10
2019-02-21T09:32:11.927Z,34.37
2019-02-21T09:34:41.730Z,32.07
2019-02-21T09:37:11.624Z,33.37
2019-02-21T09:39:41.445Z,27.93
2019-02-21T09:42:11.347Z,28.73
2019-02-21T09:44:41.196Z,30.37
2019-02-21T09:47:10.997Z,30.10
2019-02-21T09:49:40.779Z,27.53
2019-02-21T09:52:10.631Z,25.60
2019-02-21T09:54:40.886Z,27.47
2019-02-21T09:57:13.448Z,27.37
2019-02-21T09:59:42.123Z,26.03
2019-02-21T10:02:11.984Z,33.43
2019-02-21T10:04:42.976Z,26.03
2019-02-21T10:07:13.200Z,24.53
2019-02-21T10:09:43.036Z,20.00
2019-02-21T10:12:12.952Z,25.00
2019-02-21T10:14:42.757Z,22.57
2019-02-21T10:17:12.600Z,24.87
2019-02-21T10:19:42.461Z,22.73
2019-02-21T10:22:12.340Z,26.53
2019-02-21T10:24:42.218Z,23.80
2019-02-21T10:27:12.381Z,21.60
2019-02-21T10:29:42.314Z,23.47
2019-02-21T10:32:12.157Z,25.10
2019-02-21T10:34:43.331Z,25.77
2019-02-21T10:37:13.536Z,27.63
2019-02-21T10:39:43.395Z,26.43
2019-02-21T10:42:13.243Z,22.47
2019-02-21T10:44:43.206Z,24.30
2019-02-21T10:47:13.264Z,24.87
2019-02-21T10:49:43.109Z,14.63
2019-02-21T10:52:12.972Z,19.20
2019-02-21T10:54:42.986Z,18.00
2019-02-21T10:57:12.774Z,22.13
2019-02-21T10:59:46.757Z,17.43
2019-02-21T11:02:18.760Z,17.80
2019-02-21T11:04:54.726Z,27.33
2019-02-21T11:07:20.515Z,18.40
2019-02-21T11:09:50.614Z,30.23
2019-02-21T11:12:20.570Z,23.43
2019-02-21T11:14:50.417Z,29.43
2019-02-21T11:17:20.504Z,23.23
2019-02-21T11:19:52.314Z,24.60
2019-02-21T11:22:21.879Z,27.10
2019-02-21T11:24:51.818Z,23.60
2019-02-21T11:27:21.735Z,31.30
2019-02-21T11:29:51.673Z,21.73
2019-02-21T11:32:21.744Z,19.33
2019-02-21T11:34:51.618Z,22.17
2019-02-21T11:37:21.562Z,25.90
2019-02-21T11:39:51.378Z,26.60
2019-02-21T11:42:21.321Z,25.47
2019-02-21T11:44:51.108Z,21.43
2019-02-21T11:47:21.159Z,24.60
2019-02-21T11:49:51.043Z,24.83
2019-02-21T11:52:20.939Z,19.27
2019-02-21T11:54:50.903Z,23.33
2019-02-21T11:57:20.725Z,23.40
2019-02-21T11:59:50.569Z,20.80
2019-02-21T12:02:20.430Z,18.57
2019-02-21T12:04:50.491Z,22.73
2019-02-21T12:07:20.651Z,29.13
2019-02-21T12:09:50.546Z,21.70
2019-02-21T12:12:20.393Z,27.00
2019-02-21T12:14:50.476Z,27.23
2019-02-21T12:17:20.361Z,28.37
2019-02-21T12:19:50.350Z,22.83
2019-02-21T12:22:20.094Z,25.80
2019-02-21T12:24:49.989Z,24.20
2019-02-21T12:27:20.010Z,19.93
2019-02-21T12:29:49.883Z,25.03
2019-02-21T12:32:20.335Z,23.83
2019-02-21T12:34:50.161Z,28.33
2019-02-21T12:37:20.055Z,28.53
2019-02-21T12:39:49.986Z,30.20
2019-02-21T12:42:19.947Z,23.83
2019-02-21T12:44:49.814Z,26.23
2019-02-21T12:47:20.148Z,32.10
2019-02-21T12:49:50.006Z,23.63
2019-02-21T12:52:19.827Z,29.83
2019-02-21T12:54:51.926Z,29.40
2019-02-21T12:57:24.312Z,30.33
2019-02-21T12:59:54.411Z,24.50
2019-02-21T13:02:24.222Z,28.77
2019-02-21T13:04:54.115Z,26.90
2019-02-21T13:07:24.017Z,19.90
2019-02-21T13:09:53.950Z,24.80
2019-02-21T13:12:23.806Z,23.33
2019-02-21T13:14:53.852Z,28.70
2019-02-21T13:17:23.646Z,25.97
2019-02-21T13:19:53.455Z,21.40
2019-02-21T13:22:23.390Z,24.43
2019-02-21T13:24:53.342Z,27.00
2019-02-21T13:27:23.347Z,25.07
2019-02-21T13:29:54.593Z,35.50
2019-02-21T13:32:24.766Z,25.00
2019-02-21T13:34:54.538Z,23.77
2019-02-21T13:37:28.606Z,26.73
2019-02-21T13:39:55.901Z,20.30
2019-02-21T13:42:25.651Z,29.20
2019-02-21T13:44:55.618Z,24.90
2019-02-21T13:47:25.428Z,34.30
2019-02-21T13:49:55.528Z,28.47
2019-02-21T13:52:25.331Z,30.27
2019-02-21T13:54:55.218Z,30.70
2019-02-21T13:57:25.181Z,26.37
2019-02-21T13:59:55.041Z,24.10
2019-02-21T14:02:24.855Z,25.83
2019-02-21T14:04:54.661Z,30.07
2019-02-21T14:07:24.644Z,26.27
2019-02-21T14:09:54.583Z,28.53
2019-02-21T14:12:26.539Z,26.67
2019-02-21T14:14:55.920Z,26.17
2019-02-21T14:17:25.746Z,28.23
2019-02-21T14:19:55.936Z,25.87
2019-02-21T14:22:27.495Z,27.53
2019-02-21T14:24:57.843Z,27.73
2019-02-21T14:27:27.671Z,24.97
2019-02-21T14:29:57.854Z,24.40
2019-02-21T14:32:27.809Z,22.17
2019-02-21T14:34:57.725Z,19.67
2019-02-21T14:37:27.616Z,28.00
2019-02-21T14:39:57.580Z,21.33
2019-02-21T14:42:27.457Z,25.30
2019-02-21T14:44:57.396Z,27.23
2019-02-21T14:47:27.237Z,20.60
2019-02-21T14:49:57.137Z,20.33
2019-02-21T14:52:27.137Z,17.77
2019-02-21T14:54:57.044Z,19.40
2019-02-21T14:57:26.927Z,13.83
2019-02-21T14:59:57.311Z,18.07
2019-02-21T15:02:27.200Z,19.80
2019-02-21T15:04:57.131Z,33.60
2019-02-21T15:07:27.272Z,18.10
2019-02-21T15:09:59.462Z,16.67
2019-02-21T15:12:29.419Z,16.40
2019-02-21T15:14:59.321Z,13.43
2019-02-21T15:17:29.229Z,14.77
2019-02-21T15:19:59.360Z,21.23
2019-02-21T15:22:29.382Z,13.77
2019-02-21T15:24:59.398Z,16.40
2019-02-21T15:27:29.345Z,19.87
2019-02-21T15:30:01.259Z,21.00
2019-02-21T15:32:31.298Z,14.03
2019-02-21T15:35:01.114Z,11.80
2019-02-21T15:37:30.950Z,14.40
2019-02-21T15:40:00.659Z,16.93
2019-02-21T15:42:30.615Z,10.93
2019-02-21T15:45:00.798Z,11.57
2019-02-21T15:47:30.638Z,14.90
2019-02-21T15:50:00.521Z,10.80
2019-02-21T15:52:30.379Z,10.13
2019-02-21T15:55:11.341Z,11.17
2019-02-21T15:57:32.034Z,11.40
2019-02-21T16:00:02.015Z,12.53
2019-02-21T16:02:31.817Z,11.63
2019-02-21T16:05:01.780Z,14.70
2019-02-21T16:07:31.611Z,17.03
2019-02-21T16:10:01.508Z,14.40
2019-02-21T16:12:31.399Z,20.93
2019-02-21T16:15:01.497Z,16.03
2019-02-21T16:17:31.338Z,13.47
2019-02-21T16:20:01.110Z,13.70
2019-02-21T16:22:31.303Z,16.50
2019-02-21T16:25:01.226Z,19.47
2019-02-21T16:27:31.254Z,15.13
2019-02-21T16:30:01.152Z,14.30
2019-02-21T16:32:31.024Z,12.00
2019-02-21T16:35:00.901Z,23.90
2019-02-21T16:37:30.906Z,15.03
2019-02-21T16:40:01.307Z,14.97
2019-02-21T16:42:32.772Z,15.47
2019-02-21T16:45:02.717Z,14.10
2019-02-21T16:47:32.728Z,22.90
2019-02-21T16:50:02.606Z,21.17
2019-02-21T16:52:32.466Z,18.07
2019-02-21T16:55:02.564Z,12.17
2019-02-21T16:57:32.618Z,18.53
2019-02-21T17:00:02.540Z,12.80
2019-02-21T17:02:32.537Z,26.53
2019-02-21T17:05:02.576Z,12.87
2019-02-21T17:07:32.407Z,22.13
2019-02-21T17:10:03.982Z,21.77
2019-02-21T17:12:36.897Z,21.60
2019-02-21T17:15:09.118Z,16.23
2019-02-21T17:17:39.290Z,16.80
2019-02-21T17:20:11.313Z,25.03
2019-02-21T17:22:42.837Z,21.33
2019-02-21T17:25:13.850Z,18.83
2019-02-21T17:27:44.897Z,24.93
2019-02-21T17:30:16.838Z,24.33
2019-02-21T17:32:46.924Z,28.13
2019-02-21T17:35:17.240Z,19.90
2019-02-21T17:37:47.299Z,23.60
2019-02-21T17:40:18.994Z,20.03
2019-02-21T17:42:49.112Z,16.10
2019-02-21T17:45:19.441Z,24.27
2019-02-21T17:47:50.284Z,31.83
2019-02-21T17:50:23.187Z,23.80
2019-02-21T17:52:53.203Z,24.07
2019-02-21T17:55:23.377Z,24.47
2019-02-21T17:57:55.027Z,20.30
2019-02-21T18:00:32.423Z,21.23
2019-02-21T18:03:02.444Z,30.40
2019-02-21T18:05:32.347Z,24.37
2019-02-21T18:08:05.126Z,28.20
2019-02-21T18:10:35.155Z,33.37
2019-02-21T18:13:11.384Z,37.40
2019-02-21T18:15:41.636Z,31.00
2019-02-21T18:18:11.958Z,32.53
2019-02-21T18:20:42.187Z,29.30
2019-02-21T18:23:14.634Z,28.90
2019-02-21T18:25:51.518Z,27.70
2019-02-21T18:28:21.375Z,28.60
2019-02-21T18:30:51.311Z,29.03
2019-02-21T18:33:21.140Z,31.30
2019-02-21T18:35:51.055Z,25.00
2019-02-21T18:38:21.162Z,30.23
2019-02-21T18:40:51.081Z,24.80
2019-02-21T18:43:21.328Z,27.20
2019-02-21T18:45:51.541Z,33.47
2019-02-21T18:48:21.540Z,31.03
2019-02-21T18:50:51.302Z,32.57
2019-02-21T18:53:21.239Z,42.63
2019-02-21T18:55:51.153Z,38.30
2019-02-21T18:58:21.398Z,26.30
2019-02-21T19:00:51.936Z,23.60
2019-02-21T19:03:22.195Z,31.53
2019-02-21T19:05:52.366Z,28.67
2019-02-21T19:08:22.681Z,38.13
2019-02-21T19:10:52.810Z,31.30
2019-02-21T19:13:23.297Z,30.23
2019-02-21T19:15:53.663Z,35.10
2019-02-21T19:18:24.367Z,41.10
2019-02-21T19:20:55.087Z,33.20
2019-02-21T19:23:25.907Z,32.80
2019-02-21T19:25:56.368Z,34.33
2019-02-21T19:28:27.170Z,37.30
2019-02-21T19:31:09.340Z,35.37
2019-02-21T19:33:40.299Z,40.67
2019-02-21T19:36:18.986Z,36.07
2019-02-21T19:38:49.415Z,34.50
2019-02-21T19:41:21.364Z,37.23
2019-02-21T19:43:51.382Z,30.27
2019-02-21T19:46:21.515Z,34.93
2019-02-21T19:48:52.655Z,34.43
2019-02-21T19:51:22.587Z,32.07
2019-02-21T19:53:53.975Z,32.07
2019-02-21T19:56:23.996Z,33.27
2019-02-21T19:58:54.318Z,38.33
2019-02-21T20:01:24.439Z,41.63
2019-02-21T20:03:55.395Z,34.17
2019-02-21T20:06:25.703Z,38.10
2019-02-21T20:08:55.708Z,48.50
2019-02-21T20:11:28.017Z,51.00
2019-02-21T20:13:58.726Z,40.17
2019-02-21T20:16:28.932Z,43.70
2019-02-21T20:18:58.775Z,32.20
2019-02-21T20:21:29.347Z,39.70
2019-02-21T20:24:00.028Z,32.90
2019-02-21T20:26:30.238Z,40.30
2019-02-21T20:29:00.562Z,30.77
2019-02-21T20:31:30.767Z,34.90
2019-02-21T20:34:00.711Z,30.37
2019-02-21T20:36:31.218Z,34.43
2019-02-21T20:39:01.293Z,33.27
2019-02-21T20:41:31.765Z,34.73
2019-02-21T20:44:02.034Z,32.67
2019-02-21T20:46:35.546Z,35.70
2019-02-21T20:49:05.590Z,32.20
2019-02-21T20:51:35.948Z,39.43
2019-02-21T20:54:07.136Z,34.43
2019-02-21T20:56:37.326Z,35.87
2019-02-21T20:59:10.305Z,31.37
2019-02-21T21:01:41.394Z,33.93
2019-02-21T21:04:11.899Z,31.40
2019-02-21T21:06:42.678Z,30.53
2019-02-21T21:09:13.224Z,30.57
2019-02-21T21:11:44.102Z,29.17
2019-02-21T21:14:14.492Z,27.17
2019-02-21T21:16:44.881Z,30.50
2019-02-21T21:19:15.618Z,27.40
2019-02-21T21:21:53.632Z,30.07
2019-02-21T21:24:34.899Z,31.63
2019-02-21T21:27:05.533Z,37.57
2019-02-21T21:29:41.281Z,35.30
2019-02-21T21:32:11.862Z,38.00
2019-02-21T21:34:54.216Z,31.77
2019-02-21T21:38:05.708Z,31.33
2019-02-21T21:40:41.119Z,37.23
2019-02-21T21:43:25.575Z,30.03
2019-02-21T21:46:06.666Z,40.00
2019-02-21T21:48:36.614Z,30.40
2019-02-21T21:51:06.519Z,35.43
2019-02-21T21:53:36.385Z,36.60
2019-02-21T21:56:06.306Z,34.57
2019-02-21T21:58:37.353Z,36.70
2019-02-21T22:01:11.973Z,36.70
2019-02-21T22:03:41.929Z,40.33
2019-02-21T22:06:13.752Z,34.77
2019-02-21T22:08:48.170Z,33.53
2019-02-21T22:11:18.070Z,39.30
2019-02-21T22:13:55.772Z,31.03
2019-02-21T22:16:25.606Z,35.83
2019-02-21T22:19:08.253Z,37.83
2019-02-21T22:21:38.039Z,31.90
2019-02-21T22:24:08.779Z,37.50
2019-02-21T22:26:38.723Z,32.43
2019-02-21T22:29:19.778Z,43.93
2019-02-21T22:31:49.647Z,35.10
2019-02-21T22:34:29.687Z,30.43
2019-02-21T22:37:02.582Z,34.57
2019-02-21T22:39:32.496Z,37.20
2019-02-21T22:42:03.513Z,35.77
2019-02-21T22:44:35.058Z,29.77
2019-02-21T22:47:04.897Z,32.30
2019-02-21T22:49:34.740Z,30.90
2019-02-21T22:52:04.478Z,33.63
2019-02-21T22:54:34.357Z,32.10
2019-02-21T22:57:04.124Z,29.50
2019-02-21T22:59:33.997Z,30.87
2019-02-21T23:02:04.186Z,30.93
2019-02-21T23:05:04.870Z,32.53
2019-02-21T23:08:07.523Z,28.77
2019-02-21T23:10:37.409Z,30.70
2019-02-21T23:13:08.810Z,31.83
2019-02-21T23:15:38.630Z,30.33
2019-02-21T23:18:08.659Z,36.90
2019-02-21T23:20:38.620Z,29.43
2019-02-21T23:23:08.644Z,34.87
2019-02-21T23:25:38.498Z,34.30
2019-02-21T23:28:08.474Z,31.07
2019-02-21T23:30:38.389Z,32.57
2019-02-21T23:33:08.400Z,32.90
2019-02-21T23:35:38.231Z,41.37
2019-02-21T23:38:08.260Z,32.20
2019-02-21T23:40:37.971Z,38.17
2019-02-21T23:43:07.887Z,31.40
2019-02-21T23:45:37.670Z,31.13
2019-02-21T23:48:10.104Z,35.80
2019-02-21T23:50:39.807Z,36.03
2019-02-21T23:53:09.792Z,34.67
2019-02-21T23:55:39.561Z,29.80
2019-02-21T23:58:09.518Z,33.17
